Soapstone Mountain, North Carolina
Current Conditions -  °F | °C
As of 9:35 AM on Thursday 30 Oct 2014 (Local Time) from K5W8 Reporting Station
Clear Clear  
Wind Chill: 54°   Ceiling: Unl
Heat Index: 54°   Visibility: 10mi
Dew Point: 45°   Wind: 3mph
Humidity: 71%   Direction: 10°N
Pressure: 30.07"   Gusts: NA
Location:  35.8007°N, 79.5885°W
Report Text: K5W8 301335Z AUTO 01003KT 10SM CLR 12/07 A3007 RMK AO2 T01220071
Loading
Personal Weather Stations






























Interactive Weather Map
Tropical Storm Tracking
New forecast layout! Learn more

10-Day Weather Forecast

Advertisements
Track Severe Weather on mobile